createdAt,value
2022-10-03T00:01:12.026Z,102527.75
2022-10-03T00:06:43.619Z,102524.22
2022-10-03T00:12:15.778Z,102533.03
2022-10-03T00:17:46.006Z,102533.03
2022-10-03T00:23:14.882Z,102542.63
2022-10-03T00:28:49.711Z,102547.03
2022-10-03T00:34:24.983Z,102541.84
2022-10-03T00:39:57.449Z,102548.81
2022-10-03T00:45:46.132Z,102551.50
2022-10-03T00:51:26.782Z,102560.22
2022-10-03T00:57:03.109Z,102582.94
2022-10-03T01:02:56.112Z,102582.94
2022-10-03T01:08:47.768Z,102583.81
2022-10-03T01:14:20.870Z,102588.19
2022-10-03T01:20:00.987Z,102586.44
2022-10-03T01:25:36.365Z,102596.03
2022-10-03T01:31:03.066Z,102589.94
2022-10-03T01:36:32.795Z,102603.91
2022-10-03T01:42:00.968Z,102599.56
2022-10-03T01:47:30.463Z,102608.28
2022-10-03T01:52:59.047Z,102601.31
2022-10-03T01:58:28.736Z,102602.19
2022-10-03T02:03:58.478Z,102596.94
2022-10-03T02:09:28.975Z,102605.66
2022-10-03T02:14:55.282Z,102603.06
2022-10-03T02:20:26.398Z,102602.19
2022-10-03T02:26:00.041Z,102612.66
2022-10-03T02:31:50.232Z,102596.09
2022-10-03T02:37:58.696Z,102617.88
2022-10-03T02:44:12.146Z,102606.53
2022-10-03T02:50:26.901Z,102613.53
2022-10-03T02:56:14.607Z,102610.91
2022-10-03T03:01:57.491Z,102615.25
2022-10-03T03:07:38.664Z,102617.84
2022-10-03T03:13:36.923Z,102628.28
2022-10-03T03:19:14.103Z,102626.50
2022-10-03T03:24:45.998Z,102636.09
2022-10-03T03:30:12.927Z,102619.53
2022-10-03T03:35:47.916Z,102626.53
2022-10-03T03:41:22.479Z,102627.41
2022-10-03T03:46:59.093Z,102628.31
2022-10-03T03:52:36.220Z,102618.66
2022-10-03T03:58:19.460Z,102614.28
2022-10-03T04:03:53.128Z,102616.91
2022-10-03T04:09:57.708Z,102615.16
2022-10-03T04:15:31.322Z,102626.53
2022-10-03T04:21:02.944Z,102626.56
2022-10-03T04:26:36.768Z,102632.72
2022-10-03T04:32:11.121Z,102633.56
2022-10-03T04:37:41.136Z,102641.44
2022-10-03T04:43:11.514Z,102635.34
2022-10-03T04:48:39.340Z,102647.56
2022-10-03T04:54:16.186Z,102646.69
2022-10-03T04:59:48.297Z,102651.91
2022-10-03T05:05:29.173Z,102653.66
2022-10-03T05:10:58.891Z,102652.78
2022-10-03T05:16:35.599Z,102647.53
2022-10-03T05:22:04.691Z,102648.44
2022-10-03T05:27:35.695Z,102653.69
2022-10-03T05:33:08.551Z,102655.41
2022-10-03T05:38:57.221Z,102654.53
2022-10-03T05:44:27.803Z,102660.66
2022-10-03T05:50:03.759Z,102663.28
2022-10-03T05:55:52.623Z,102651.91
2022-10-03T06:01:34.726Z,102650.19
2022-10-03T06:07:10.575Z,102660.63
2022-10-03T06:12:40.776Z,102656.25
2022-10-03T06:18:14.622Z,102666.75
2022-10-03T06:23:52.432Z,102664.13
2022-10-03T06:29:44.867Z,102664.13
2022-10-03T06:35:59.243Z,102661.44
2022-10-03T06:41:42.963Z,102665.78
2022-10-03T06:47:27.018Z,102657.91
2022-10-03T06:53:12.097Z,102668.38
2022-10-03T06:58:48.822Z,102677.09
2022-10-03T07:04:48.261Z,102677.91
2022-10-03T07:10:30.820Z,102681.34
2022-10-03T07:16:26.422Z,102689.22
2022-10-03T07:22:27.553Z,102701.34
2022-10-03T07:28:04.677Z,102705.66
2022-10-03T07:34:09.404Z,102707.19
2022-10-03T07:39:55.846Z,102700.97
2022-10-03T07:45:45.227Z,102704.50
2022-10-03T07:51:15.930Z,102709.72
2022-10-03T07:56:58.014Z,102715.88
2022-10-03T08:02:43.096Z,102716.59
2022-10-03T08:08:39.048Z,102724.09
2022-10-03T08:14:11.480Z,102721.13
2022-10-03T08:19:52.267Z,102718.94
2022-10-03T08:25:28.325Z,102733.59
2022-10-03T08:31:11.901Z,102727.44
2022-10-03T08:36:54.736Z,102737.00
2022-10-03T08:42:40.653Z,102731.38
2022-10-03T08:48:37.107Z,102727.84
2022-10-03T08:54:19.866Z,102735.00
2022-10-03T09:00:14.953Z,102740.44
2022-10-03T09:06:12.575Z,102732.94
2022-10-03T09:11:50.760Z,102734.53
2022-10-03T09:17:41.512Z,102738.88
2022-10-03T09:23:26.905Z,102733.44
2022-10-03T09:29:22.461Z,102734.91
2022-10-03T09:35:23.241Z,102733.09
2022-10-03T09:41:15.546Z,102729.53
2022-10-03T09:47:11.541Z,102721.56
2022-10-03T09:52:50.910Z,102725.50
2022-10-03T09:58:44.327Z,102723.25
2022-10-03T10:04:56.667Z,102717.28
2022-10-03T10:10:39.136Z,102710.03
2022-10-03T10:16:22.423Z,102709.06
2022-10-03T10:22:21.167Z,102710.97
2022-10-03T10:28:20.839Z,102709.25
2022-10-03T10:34:19.652Z,102711.66
2022-10-03T10:40:12.689Z,102699.91
2022-10-03T10:45:57.508Z,102702.56
2022-10-03T10:51:48.198Z,102700.22
2022-10-03T10:57:19.547Z,102703.06
2022-10-03T11:03:19.742Z,102707.72
2022-10-03T11:09:25.397Z,102699.00
2022-10-03T11:15:19.354Z,102691.53
2022-10-03T11:21:23.757Z,102693.03
2022-10-03T11:27:18.487Z,102687.59
2022-10-03T11:33:07.859Z,102676.50
2022-10-03T11:38:36.269Z,102672.13
2022-10-03T11:44:15.463Z,102685.25
2022-10-03T11:49:56.573Z,102679.38
2022-10-03T11:55:31.738Z,102679.19
2022-10-03T12:01:02.463Z,102675.75
2022-10-03T12:07:01.721Z,102673.16
2022-10-03T12:12:35.870Z,102667.31
2022-10-03T12:18:06.100Z,102669.44
2022-10-03T12:23:47.079Z,102660.94
2022-10-03T12:29:13.460Z,102658.31
2022-10-03T12:34:41.690Z,102652.97
2022-10-03T12:40:10.807Z,102650.03
2022-10-03T12:45:38.674Z,102650.72
2022-10-03T12:51:06.061Z,102651.50
2022-10-03T12:56:36.172Z,102645.66
2022-10-03T13:02:26.029Z,102640.06
2022-10-03T13:07:52.781Z,102631.59
2022-10-03T13:13:31.987Z,102640.94
2022-10-03T13:19:05.583Z,102631.84
2022-10-03T13:24:40.325Z,102634.41
2022-10-03T13:30:09.597Z,102622.44
2022-10-03T13:35:57.798Z,102619.53
2022-10-03T13:41:32.087Z,102616.69
2022-10-03T13:47:00.726Z,102621.56
2022-10-03T13:52:32.069Z,102607.84
2022-10-03T13:58:04.105Z,102607.03
2022-10-03T14:03:33.078Z,102606.53
2022-10-03T14:09:33.642Z,102597.78
2022-10-03T14:15:20.574Z,102603.41
2022-10-03T14:21:32.180Z,102598.53
2022-10-03T14:26:59.751Z,102590.25
2022-10-03T14:32:46.769Z,102587.06
2022-10-03T14:38:48.978Z,102585.84
2022-10-03T14:44:15.087Z,102568.22
2022-10-03T14:49:56.305Z,102569.25
2022-10-03T14:55:27.662Z,102554.13
2022-10-03T15:00:55.279Z,102544.53
2022-10-03T15:06:35.845Z,102545.72
2022-10-03T15:12:03.122Z,102549.22
2022-10-03T15:17:29.477Z,102551.31
2022-10-03T15:22:55.200Z,102549.09
2022-10-03T15:28:21.794Z,102556.03
2022-10-03T15:33:45.848Z,102547.81
2022-10-03T15:39:20.921Z,102558.47
2022-10-03T15:44:53.728Z,102557.00
2022-10-03T15:50:21.155Z,102543.34
2022-10-03T15:55:49.929Z,102538.16
2022-10-03T16:01:17.020Z,102535.22
2022-10-03T16:06:49.298Z,102536.00
2022-10-03T16:12:37.799Z,102521.16
2022-10-03T16:18:02.880Z,102515.44
2022-10-03T16:23:28.805Z,102519.25
2022-10-03T16:29:00.027Z,102517.78
2022-10-03T16:34:26.431Z,102514.50
2022-10-03T16:40:01.794Z,102508.38
2022-10-03T16:45:30.261Z,102509.47
2022-10-03T16:50:54.586Z,102496.59
2022-10-03T16:56:19.353Z,102490.75
2022-10-03T17:01:47.435Z,102490.13
2022-10-03T17:07:16.156Z,102484.13
2022-10-03T17:12:43.190Z,102492.25
2022-10-03T17:18:17.255Z,102495.09
2022-10-03T17:23:41.429Z,102486.69
2022-10-03T17:29:13.653Z,102483.31
2022-10-03T17:34:41.443Z,102496.81
2022-10-03T17:40:16.599Z,102500.41
2022-10-03T17:45:44.055Z,102509.19
2022-10-03T17:51:33.798Z,102517.19
2022-10-03T17:57:00.150Z,102485.78
2022-10-03T18:02:27.270Z,102495.56
2022-10-03T18:07:54.366Z,102481.69
2022-10-03T18:13:25.024Z,102479.13
2022-10-03T18:19:21.642Z,102466.16
2022-10-03T18:24:51.968Z,102464.66
2022-10-03T18:30:17.273Z,102464.63
2022-10-03T18:35:41.491Z,102473.41
2022-10-03T18:41:06.505Z,102463.59
2022-10-03T18:46:31.585Z,102436.50
2022-10-03T18:51:58.238Z,102460.13
2022-10-03T18:57:24.639Z,102473.31
2022-10-03T19:02:52.272Z,102457.59
2022-10-03T19:08:20.708Z,102460.28
2022-10-03T19:13:53.796Z,102460.31
2022-10-03T19:19:25.487Z,102454.16
2022-10-03T19:24:59.153Z,102450.69
2022-10-03T19:30:25.384Z,102448.03
2022-10-03T19:35:50.855Z,102449.78
2022-10-03T19:41:21.655Z,102450.63
2022-10-03T19:46:54.666Z,102459.50
2022-10-03T19:52:20.561Z,102463.09
2022-10-03T19:57:46.432Z,102463.16
2022-10-03T20:03:16.344Z,102459.75
2022-10-03T20:08:41.872Z,102470.25
2022-10-03T20:14:05.255Z,102465.06
2022-10-03T20:19:32.647Z,102462.53
2022-10-03T20:24:55.990Z,102458.13
2022-10-03T20:30:25.540Z,102449.47
2022-10-03T20:35:54.780Z,102455.50
2022-10-03T20:41:20.850Z,102463.41
2022-10-03T20:46:46.894Z,102459.09
2022-10-03T20:52:18.272Z,102463.50
2022-10-03T20:57:45.932Z,102456.56
2022-10-03T21:03:15.727Z,102453.16
2022-10-03T21:08:42.012Z,102440.00
2022-10-03T21:14:14.367Z,102429.44
2022-10-03T21:19:44.047Z,102430.31
2022-10-03T21:25:18.627Z,102427.69
2022-10-03T21:30:55.299Z,102427.66
2022-10-03T21:36:25.622Z,102402.28
2022-10-03T21:42:02.366Z,102403.19
2022-10-03T21:47:36.993Z,102391.78
2022-10-03T21:53:13.787Z,102385.59
2022-10-03T21:58:49.755Z,102386.63
2022-10-03T22:04:16.754Z,102376.06
2022-10-03T22:09:45.513Z,102368.38
2022-10-03T22:15:13.879Z,102370.19
2022-10-03T22:20:37.295Z,102364.88
2022-10-03T22:26:14.966Z,102359.63
2022-10-03T22:31:43.479Z,102360.75
2022-10-03T22:37:06.878Z,102361.38
2022-10-03T22:42:32.066Z,102353.53
2022-10-03T22:47:59.069Z,102360.38
2022-10-03T22:53:26.489Z,102350.66
2022-10-03T22:58:50.694Z,102346.34
2022-10-03T23:04:20.151Z,102346.34
2022-10-03T23:09:50.710Z,102335.88
2022-10-03T23:15:16.053Z,102332.47
2022-10-03T23:20:57.602Z,102325.63
2022-10-03T23:26:38.276Z,102316.97
2022-10-03T23:32:02.975Z,102317.88
2022-10-03T23:37:40.929Z,102305.66
2022-10-03T23:43:24.177Z,102296.22
2022-10-03T23:48:49.211Z,102287.53
2022-10-03T23:54:14.341Z,102283.16
2022-10-03T23:59:38.874Z,102253.63
